createdAt,value
2023-04-19T00:01:28.531Z,103817.72
2023-04-19T00:04:34.673Z,103816.69
2023-04-19T00:07:39.850Z,103816.84
2023-04-19T00:10:45.053Z,103821.00
2023-04-19T00:13:51.527Z,103800.28
2023-04-19T00:16:56.659Z,103808.72
2023-04-19T00:20:01.769Z,103816.19
2023-04-19T00:23:07.228Z,103804.34
2023-04-19T00:26:15.772Z,103802.59
2023-04-19T00:29:27.081Z,103807.41
2023-04-19T00:32:32.234Z,103810.75
2023-04-19T00:35:37.335Z,103810.63
2023-04-19T00:38:42.621Z,103801.94
2023-04-19T00:41:48.748Z,103801.03
2023-04-19T00:44:56.732Z,103804.38
2023-04-19T00:48:02.437Z,103803.44
2023-04-19T00:51:07.859Z,103804.53
2023-04-19T00:54:15.250Z,103813.69
2023-04-19T00:57:21.804Z,103808.06
2023-04-19T01:00:30.245Z,103801.09
2023-04-19T01:03:36.790Z,103815.06
2023-04-19T01:06:42.624Z,103807.53
2023-04-19T01:09:49.427Z,103805.00
2023-04-19T01:12:54.533Z,103809.84
2023-04-19T01:16:01.835Z,103816.41
2023-04-19T01:19:06.991Z,103814.59
2023-04-19T01:22:18.350Z,103817.84
2023-04-19T01:25:23.783Z,103812.84
2023-04-19T01:28:29.040Z,103807.00
2023-04-19T01:31:34.548Z,103813.50
2023-04-19T01:34:42.980Z,103816.34
2023-04-19T01:37:50.724Z,103819.69
2023-04-19T01:40:57.348Z,103813.22
2023-04-19T01:44:03.214Z,103818.09
2023-04-19T01:47:08.655Z,103812.44
2023-04-19T01:50:15.694Z,103808.16
2023-04-19T01:53:22.256Z,103809.63
2023-04-19T01:56:28.114Z,103813.53
2023-04-19T01:59:33.258Z,103815.28
2023-04-19T02:02:39.286Z,103821.06
2023-04-19T02:05:44.466Z,103817.88
2023-04-19T02:08:50.882Z,103818.53
2023-04-19T02:11:56.277Z,103810.22
2023-04-19T02:15:02.295Z,103819.31
2023-04-19T02:18:13.626Z,103819.31
2023-04-19T02:21:18.713Z,103823.44
2023-04-19T02:24:27.098Z,103820.19
2023-04-19T02:27:32.454Z,103827.84
2023-04-19T02:30:39.163Z,103825.56
2023-04-19T02:33:47.034Z,103813.47
2023-04-19T02:36:53.567Z,103829.03
2023-04-19T02:40:00.197Z,103820.34
2023-04-19T02:43:07.448Z,103815.34
2023-04-19T02:46:13.799Z,103805.31
2023-04-19T02:49:18.928Z,103815.78
2023-04-19T02:52:24.888Z,103815.22
2023-04-19T02:55:31.442Z,103812.34
2023-04-19T02:58:43.960Z,103806.84
2023-04-19T03:01:50.743Z,103807.63
2023-04-19T03:04:56.650Z,103798.84
2023-04-19T03:08:01.982Z,103799.56
2023-04-19T03:11:08.660Z,103795.63
2023-04-19T03:14:15.102Z,103801.16
2023-04-19T03:17:20.575Z,103799.41
2023-04-19T03:20:26.280Z,103802.81
2023-04-19T03:23:32.017Z,103801.78
2023-04-19T03:26:40.797Z,103803.22
2023-04-19T03:29:48.418Z,103810.81
2023-04-19T03:32:54.226Z,103819.25
2023-04-19T03:35:59.913Z,103812.13
2023-04-19T03:39:05.305Z,103807.38
2023-04-19T03:42:13.633Z,103810.63
2023-04-19T03:45:48.001Z,103814.56
2023-04-19T03:48:54.092Z,103813.13
2023-04-19T03:52:01.105Z,103821.50
2023-04-19T03:55:07.443Z,103818.03
2023-04-19T03:58:18.278Z,103821.50
2023-04-19T04:01:41.900Z,103822.06
2023-04-19T04:04:47.526Z,103818.19
2023-04-19T04:07:53.364Z,103829.16
2023-04-19T04:10:59.677Z,103813.22
2023-04-19T04:14:06.295Z,103824.13
2023-04-19T04:17:17.025Z,103819.22
2023-04-19T04:20:22.724Z,103814.50
2023-04-19T04:23:31.177Z,103823.59
2023-04-19T04:26:39.530Z,103824.69
2023-04-19T04:30:04.436Z,103819.84
2023-04-19T04:33:12.037Z,103823.38
2023-04-19T04:36:19.340Z,103834.00
2023-04-19T04:39:26.430Z,103831.69
2023-04-19T04:42:31.625Z,103818.19
2023-04-19T04:45:39.038Z,103827.69
2023-04-19T04:48:44.341Z,103827.06
2023-04-19T04:51:49.499Z,103826.66
2023-04-19T04:54:55.285Z,103833.59
2023-04-19T04:58:06.858Z,103816.44
2023-04-19T05:01:28.246Z,103816.75
2023-04-19T05:04:33.604Z,103815.78
2023-04-19T05:07:39.968Z,103819.41
2023-04-19T05:10:45.497Z,103825.66
2023-04-19T05:13:53.182Z,103824.47
2023-04-19T05:16:59.679Z,103822.09
2023-04-19T05:20:05.806Z,103829.06
2023-04-19T05:23:11.690Z,103820.22
2023-04-19T05:26:17.362Z,103830.72
2023-04-19T05:29:23.712Z,103825.28
2023-04-19T05:32:33.615Z,103823.25
2023-04-19T05:35:41.729Z,103832.59
2023-04-19T05:38:47.065Z,103829.25
2023-04-19T05:41:52.538Z,103844.16
2023-04-19T05:44:57.752Z,103844.16
2023-04-19T05:48:04.449Z,103842.13
2023-04-19T05:51:29.761Z,103835.13
2023-04-19T05:55:03.679Z,103833.00
2023-04-19T05:58:11.304Z,103827.19
2023-04-19T06:01:16.761Z,103832.47
2023-04-19T06:04:24.056Z,103830.59
2023-04-19T06:07:32.899Z,103832.66
2023-04-19T06:10:53.765Z,103833.78
2023-04-19T06:14:02.434Z,103829.06
2023-04-19T06:17:07.578Z,103828.03
2023-04-19T06:20:16.634Z,103830.22
2023-04-19T06:23:21.898Z,103841.22
2023-04-19T06:26:27.038Z,103826.22
2023-04-19T06:29:32.064Z,103823.78
2023-04-19T06:32:37.259Z,103826.09
2023-04-19T06:35:43.806Z,103828.53
2023-04-19T06:38:50.157Z,103830.22
2023-04-19T06:41:55.605Z,103830.34
2023-04-19T06:45:01.528Z,103825.78
2023-04-19T06:48:07.416Z,103834.28
2023-04-19T06:51:14.282Z,103825.56
2023-04-19T06:54:19.426Z,103824.59
2023-04-19T06:57:25.136Z,103821.53
2023-04-19T07:00:30.305Z,103823.53
2023-04-19T07:03:35.653Z,103819.97
2023-04-19T07:06:42.607Z,103821.28
2023-04-19T07:09:47.675Z,103814.91
2023-04-19T07:12:53.404Z,103820.06
2023-04-19T07:15:58.565Z,103815.59
2023-04-19T07:19:03.761Z,103815.69
2023-04-19T07:22:10.349Z,103815.31
2023-04-19T07:25:15.647Z,103822.66
2023-04-19T07:28:20.928Z,103815.88
2023-04-19T07:31:26.259Z,103806.63
2023-04-19T07:34:31.338Z,103815.03
2023-04-19T07:37:38.008Z,103813.31
2023-04-19T07:40:43.029Z,103814.13
2023-04-19T07:43:48.201Z,103810.34
2023-04-19T07:46:54.376Z,103796.34
2023-04-19T07:49:59.876Z,103805.13
2023-04-19T07:53:06.381Z,103805.31
2023-04-19T07:56:14.406Z,103795.94
2023-04-19T07:59:19.534Z,103795.09
2023-04-19T08:02:24.814Z,103806.06
2023-04-19T08:05:30.509Z,103805.16
2023-04-19T08:08:37.703Z,103800.44
2023-04-19T08:11:43.276Z,103792.34
2023-04-19T08:15:01.519Z,103786.97
2023-04-19T08:18:14.334Z,103797.69
2023-04-19T08:21:23.969Z,103783.16
2023-04-19T08:24:32.712Z,103789.75
2023-04-19T08:27:38.349Z,103784.22
2023-04-19T08:30:43.476Z,103794.31
2023-04-19T08:33:48.699Z,103783.31
2023-04-19T08:37:03.396Z,103789.22
2023-04-19T08:40:14.655Z,103783.00
2023-04-19T08:43:19.980Z,103794.03
2023-04-19T08:46:26.924Z,103790.81
2023-04-19T08:49:32.851Z,103789.88
2023-04-19T08:52:51.969Z,103801.97
2023-04-19T08:59:18.551Z,103800.81
2023-04-19T09:02:24.861Z,103795.91
2023-04-19T09:05:30.321Z,103789.25
2023-04-19T09:08:35.558Z,103797.13
2023-04-19T09:11:42.170Z,103793.63
2023-04-19T09:18:08.220Z,103788.41
2023-04-19T09:21:29.736Z,103788.47
2023-04-19T09:27:50.520Z,103773.25
2023-04-19T09:31:06.799Z,103777.03
2023-04-19T09:34:16.698Z,103772.06
2023-04-19T09:37:41.616Z,103768.22
2023-04-19T09:40:47.790Z,103767.75
2023-04-19T09:47:02.813Z,103764.25
2023-04-19T09:50:21.935Z,103766.16
2023-04-19T09:53:29.889Z,103756.00
2023-04-19T09:56:35.197Z,103755.41
2023-04-19T09:59:41.676Z,103752.03
2023-04-19T10:02:54.673Z,103742.78
2023-04-19T10:06:04.354Z,103741.22
2023-04-19T10:09:16.842Z,103741.22
2023-04-19T10:12:46.292Z,103737.13
2023-04-19T10:15:53.998Z,103737.16
2023-04-19T10:19:00.760Z,103726.81
2023-04-19T10:22:07.228Z,103722.78
2023-04-19T10:25:15.080Z,103717.69
2023-04-19T10:28:20.340Z,103723.75
2023-04-19T10:31:29.158Z,103726.31
2023-04-19T10:34:41.225Z,103727.81
2023-04-19T10:38:06.331Z,103720.19
2023-04-19T10:41:17.467Z,103724.75
2023-04-19T10:44:23.300Z,103711.16
2023-04-19T10:51:22.501Z,103724.97
2023-04-19T10:54:38.121Z,103715.56
2023-04-19T10:58:09.247Z,103711.34
2023-04-19T11:01:38.450Z,103706.84
2023-04-19T11:05:20.310Z,103716.25
2023-04-19T11:08:38.170Z,103713.50
2023-04-19T11:11:44.515Z,103702.75
2023-04-19T11:15:00.307Z,103702.03
2023-04-19T11:18:13.047Z,103700.31
2023-04-19T11:21:34.939Z,103698.66
2023-04-19T11:24:50.676Z,103691.72
2023-04-19T11:28:13.017Z,103696.88
2023-04-19T11:31:22.982Z,103701.03
2023-04-19T11:34:50.212Z,103695.75
2023-04-19T11:38:02.384Z,103692.66
2023-04-19T11:41:14.349Z,103699.47
2023-04-19T11:44:27.291Z,103707.94
2023-04-19T11:47:39.001Z,103704.34
2023-04-19T11:50:49.967Z,103695.28
2023-04-19T11:53:58.056Z,103703.97
2023-04-19T11:57:08.205Z,103688.59
2023-04-19T12:00:16.108Z,103684.44
2023-04-19T12:03:27.438Z,103671.63
2023-04-19T12:06:34.734Z,103680.31
2023-04-19T12:09:41.767Z,103681.19
2023-04-19T12:12:51.493Z,103676.16
2023-04-19T12:15:59.692Z,103682.88
2023-04-19T12:19:18.394Z,103678.50
2023-04-19T12:22:26.409Z,103682.78
2023-04-19T12:25:34.225Z,103677.75
2023-04-19T12:28:43.111Z,103678.69
2023-04-19T12:31:49.272Z,103677.06
2023-04-19T12:35:00.389Z,103666.69
2023-04-19T12:41:31.742Z,103666.50
2023-04-19T12:44:40.037Z,103653.78
2023-04-19T12:47:47.548Z,103656.53
2023-04-19T12:50:54.136Z,103647.34
2023-04-19T12:54:03.426Z,103654.97
2023-04-19T12:57:09.717Z,103647.28
2023-04-19T13:00:19.329Z,103647.88
2023-04-19T13:03:33.425Z,103645.50
2023-04-19T13:06:42.667Z,103640.41
2023-04-19T13:09:50.544Z,103637.03
2023-04-19T13:13:02.117Z,103633.63
2023-04-19T13:16:18.579Z,103637.91
2023-04-19T13:19:42.366Z,103630.59
2023-04-19T13:22:51.127Z,103629.34
2023-04-19T13:26:01.810Z,103626.72
2023-04-19T13:29:13.767Z,103613.94
2023-04-19T13:32:27.246Z,103614.03
2023-04-19T13:35:36.114Z,103610.63
2023-04-19T13:38:56.932Z,103614.72
2023-04-19T13:42:07.378Z,103613.84
2023-04-19T13:45:22.136Z,103613.94
2023-04-19T13:48:35.884Z,103601.03
2023-04-19T13:51:51.001Z,103595.75
2023-04-19T13:55:01.314Z,103601.06
2023-04-19T13:58:08.199Z,103598.63
2023-04-19T14:01:28.489Z,103601.06
2023-04-19T14:04:37.763Z,103583.69
2023-04-19T14:07:51.040Z,103584.78
2023-04-19T14:11:04.597Z,103578.72
2023-04-19T14:18:07.560Z,103576.19
2023-04-19T14:21:47.492Z,103579.63
2023-04-19T14:24:59.087Z,103576.06
2023-04-19T14:28:41.506Z,103575.94
2023-04-19T14:36:12.638Z,103572.72
2023-04-19T14:43:20.511Z,103564.78
2023-04-19T14:46:45.551Z,103567.38
2023-04-19T14:49:53.923Z,103573.38
2023-04-19T14:52:59.936Z,103568.44
2023-04-19T14:56:06.992Z,103563.31
2023-04-19T14:59:15.554Z,103563.19
2023-04-19T15:02:23.004Z,103566.69
2023-04-19T15:05:30.498Z,103559.72
2023-04-19T15:08:47.913Z,103551.06
2023-04-19T15:11:57.924Z,103563.16
2023-04-19T15:20:19.568Z,103554.41
2023-04-19T15:23:59.281Z,103545.91
2023-04-19T15:27:09.243Z,103548.47
2023-04-19T15:30:21.306Z,103552.75
2023-04-19T15:33:28.377Z,103534.75
2023-04-19T15:36:37.543Z,103539.75
2023-04-19T15:40:05.389Z,103541.53
2023-04-19T15:43:14.419Z,103534.56
2023-04-19T15:46:21.598Z,103528.50
2023-04-19T15:49:28.077Z,103526.72
2023-04-19T15:52:34.492Z,103529.34
2023-04-19T15:55:54.760Z,103530.25
2023-04-19T15:59:06.755Z,103520.00
2023-04-19T16:02:28.898Z,103532.66
2023-04-19T16:05:39.277Z,103522.31
2023-04-19T16:08:45.352Z,103521.38
2023-04-19T16:11:56.777Z,103519.66
2023-04-19T16:15:04.707Z,103526.53
2023-04-19T16:18:14.328Z,103523.94
2023-04-19T16:21:25.028Z,103516.09
2023-04-19T16:24:42.525Z,103519.47
2023-04-19T16:28:09.905Z,103522.91
2023-04-19T16:31:38.065Z,103519.44
2023-04-19T16:34:55.024Z,103518.41
2023-04-19T16:38:08.429Z,103518.50
2023-04-19T16:44:58.967Z,103510.59
2023-04-19T16:48:11.317Z,103516.41
2023-04-19T16:51:18.043Z,103520.66
2023-04-19T16:54:24.709Z,103517.19
2023-04-19T16:57:34.424Z,103515.47
2023-04-19T17:00:44.888Z,103525.59
2023-04-19T17:03:54.714Z,103530.47
2023-04-19T17:07:13.069Z,103532.84
2023-04-19T17:10:20.471Z,103529.41
2023-04-19T17:16:54.803Z,103533.84
2023-04-19T17:20:10.758Z,103533.75
2023-04-19T17:23:18.493Z,103533.66
2023-04-19T17:26:28.618Z,103528.22
2023-04-19T17:29:56.893Z,103535.03
2023-04-19T17:33:19.603Z,103530.00
2023-04-19T17:36:31.277Z,103529.94
2023-04-19T17:43:33.152Z,103535.03
2023-04-19T17:46:47.265Z,103534.63
2023-04-19T17:50:30.224Z,103529.34
2023-04-19T17:54:35.366Z,103533.31
2023-04-19T17:58:11.474Z,103538.56
2023-04-19T18:08:56.760Z,103542.22
2023-04-19T18:16:19.873Z,103540.22
2023-04-19T18:19:58.711Z,103540.88
2023-04-19T18:23:25.306Z,103534.03
2023-04-19T18:26:42.285Z,103532.75
2023-04-19T18:30:05.705Z,103541.75
2023-04-19T18:33:26.920Z,103543.66
2023-04-19T18:36:47.631Z,103537.97
2023-04-19T18:43:33.223Z,103546.00
2023-04-19T18:46:44.146Z,103547.31
2023-04-19T18:50:07.988Z,103557.72
2023-04-19T18:53:38.007Z,103556.22
2023-04-19T19:00:39.143Z,103550.72
2023-04-19T19:04:10.628Z,103559.50
2023-04-19T19:07:38.664Z,103560.97
2023-04-19T19:11:14.267Z,103557.53
2023-04-19T19:14:34.738Z,103564.25
2023-04-19T19:17:50.915Z,103561.59
2023-04-19T19:21:04.069Z,103562.81
2023-04-19T19:24:17.365Z,103573.75
2023-04-19T19:27:33.978Z,103565.19
2023-04-19T19:30:47.932Z,103564.97
2023-04-19T19:34:14.729Z,103568.41
2023-04-19T19:37:45.036Z,103570.88
2023-04-19T19:44:41.655Z,103576.03
2023-04-19T19:48:05.479Z,103573.03
2023-04-19T19:51:42.217Z,103578.16
2023-04-19T19:54:47.005Z,103577.97
2023-04-19T20:07:13.596Z,103581.69
2023-04-19T20:09:52.412Z,103584.50
2023-04-19T20:13:05.366Z,103586.19
2023-04-19T20:16:26.638Z,103578.97
2023-04-19T20:19:37.895Z,103580.44
2023-04-19T20:22:46.415Z,103580.31
2023-04-19T20:25:53.460Z,103576.72
2023-04-19T20:28:59.158Z,103581.84
2023-04-19T20:32:06.140Z,103575.41
2023-04-19T20:35:15.803Z,103581.19
2023-04-19T20:38:23.917Z,103584.75
2023-04-19T20:41:30.210Z,103586.72
2023-04-19T20:44:36.697Z,103583.72
2023-04-19T20:47:43.125Z,103577.88
2023-04-19T20:50:52.455Z,103589.03
2023-04-19T20:53:58.277Z,103584.13
2023-04-19T20:57:04.979Z,103585.19
2023-04-19T21:00:17.790Z,103586.31
2023-04-19T21:03:24.601Z,103588.38
2023-04-19T21:06:33.037Z,103588.13
2023-04-19T21:09:38.845Z,103582.50
2023-04-19T21:12:45.027Z,103596.41
2023-04-19T21:15:51.474Z,103585.66
2023-04-19T21:18:58.059Z,103590.94
2023-04-19T21:22:05.850Z,103599.59
2023-04-19T21:25:14.822Z,103587.44
2023-04-19T21:28:21.050Z,103595.50
2023-04-19T21:31:33.282Z,103596.19
2023-04-19T21:34:40.502Z,103592.47
2023-04-19T21:37:51.633Z,103603.31
2023-04-19T21:40:58.990Z,103597.22
2023-04-19T21:44:09.485Z,103588.88
2023-04-19T21:47:21.519Z,103589.94
2023-04-19T21:50:31.108Z,103590.97
2023-04-19T21:53:46.332Z,103597.50
2023-04-19T21:56:54.227Z,103584.94
2023-04-19T22:00:00.603Z,103585.34
2023-04-19T22:03:07.742Z,103586.31
2023-04-19T22:06:17.316Z,103580.09
2023-04-19T22:09:26.238Z,103583.09
2023-04-19T22:12:31.601Z,103572.97
2023-04-19T22:15:38.693Z,103576.38
2023-04-19T22:18:44.348Z,103572.94
2023-04-19T22:21:51.223Z,103578.59
2023-04-19T22:24:58.448Z,103576.38
2023-04-19T22:28:07.243Z,103576.88
2023-04-19T22:31:13.656Z,103572.81
2023-04-19T22:34:19.848Z,103571.84
2023-04-19T22:37:25.412Z,103582.97
2023-04-19T22:40:33.313Z,103578.16
2023-04-19T22:43:38.771Z,103576.13
2023-04-19T22:46:45.196Z,103577.66
2023-04-19T22:49:50.696Z,103575.06
2023-04-19T22:52:56.785Z,103581.44
2023-04-19T22:56:04.323Z,103581.03
2023-04-19T22:59:10.531Z,103578.97
2023-04-19T23:02:16.277Z,103570.31
2023-04-19T23:05:22.963Z,103581.06
2023-04-19T23:08:29.084Z,103572.25
2023-04-19T23:11:37.670Z,103573.13
2023-04-19T23:14:43.430Z,103575.59
2023-04-19T23:17:50.204Z,103563.78
2023-04-19T23:20:56.180Z,103567.56
2023-04-19T23:24:02.633Z,103570.41
2023-04-19T23:27:10.087Z,103566.56
2023-04-19T23:30:21.265Z,103571.47
2023-04-19T23:33:26.876Z,103563.06
2023-04-19T23:36:32.954Z,103558.41
2023-04-19T23:39:38.943Z,103560.41
2023-04-19T23:42:46.878Z,103562.91
2023-04-19T23:45:52.289Z,103561.13
2023-04-19T23:48:58.357Z,103556.69
2023-04-19T23:52:04.008Z,103557.44
2023-04-19T23:55:10.718Z,103555.59
2023-04-19T23:58:18.080Z,103556.06
